Time;durP1;ratioP1;P1;durP2;ratioP2;P2;SDS_P1;SDS_P2;PMS_P1;PMS_P2;Temp;Humidity;BMP_temperature;BMP_pressure;BME280_temperature;BME280_humidity;BME280_pressure;Samples;Min_cycle;Max_cycle;Signal;HPM_P1;HPM_P2
2022/03/02 00:00:56;;;;;;;8.20;5.80;;;;;;;;;;5024130;28;20197;-56
2022/03/02 00:03:23;;;;;;;7.13;6.23;;;;;;;;;;5014324;28;20192;-55
2022/03/02 00:05:49;;;;;;;8.13;6.57;;;;;;;;;;5008351;28;20186;-55
2022/03/02 00:08:15;;;;;;;8.10;6.03;;;;;;;;;;5008946;28;20190;-56
2022/03/02 00:10:41;;;;;;;7.20;5.57;;;;;;;;;;5007760;28;20175;-56
2022/03/02 00:13:13;;;;;;;8.07;5.80;;;;;;;;;;4999772;28;20211;-55
2022/03/02 00:15:39;;;;;;;6.97;5.47;;;;;;;;;;4991184;28;20696;-54
2022/03/02 00:18:05;;;;;;;8.17;6.00;;;;;;;;;;5005021;28;20188;-54
2022/03/02 00:20:31;;;;;;;7.53;5.53;;;;;;;;;;5007383;28;20297;-54
2022/03/02 00:22:58;;;;;;;9.47;5.80;;;;;;;;;;5005392;28;20189;-54
2022/03/02 00:25:24;;;;;;;6.20;5.40;;;;;;;;;;4992718;28;20191;-54
2022/03/02 00:27:50;;;;;;;6.60;5.57;;;;;;;;;;5006578;28;20178;-54
2022/03/02 00:30:16;;;;;;;8.80;6.00;;;;;;;;;;5006742;28;20209;-54
2022/03/02 00:32:42;;;;;;;7.80;5.60;;;;;;;;;;5006944;28;20543;-54
2022/03/02 00:35:09;;;;;;;8.70;6.43;;;;;;;;;;5005331;28;20222;-54
2022/03/02 00:37:36;;;;;;;7.90;6.07;;;;;;;;;;5007300;28;20175;-54
2022/03/02 00:40:02;;;;;;;8.33;5.87;;;;;;;;;;5003505;28;20179;-54
2022/03/02 00:42:30;;;;;;;8.73;6.30;;;;;;;;;;4988860;28;20236;-55
2022/03/02 00:44:56;;;;;;;8.70;6.93;;;;;;;;;;5012655;28;20189;-54
2022/03/02 00:47:23;;;;;;;8.10;5.80;;;;;;;;;;5006978;28;20265;-54
2022/03/02 00:49:49;;;;;;;8.53;6.10;;;;;;;;;;5013813;28;20312;-54
2022/03/02 00:52:17;;;;;;;8.33;6.37;;;;;;;;;;5009370;28;20201;-54
2022/03/02 00:54:43;;;;;;;9.27;6.10;;;;;;;;;;5003951;28;20187;-54
2022/03/02 00:57:09;;;;;;;10.17;6.87;;;;;;;;;;5008861;28;20194;-54
2022/03/02 00:59:35;;;;;;;8.23;5.57;;;;;;;;;;4992028;28;20657;-54
2022/03/02 01:02:01;;;;;;;8.53;5.93;;;;;;;;;;5008078;28;20269;-54
2022/03/02 01:04:27;;;;;;;6.03;5.03;;;;;;;;;;5003879;28;20187;-54
2022/03/02 01:06:53;;;;;;;6.43;5.33;;;;;;;;;;5007369;28;20587;-54
2022/03/02 01:09:19;;;;;;;7.83;5.37;;;;;;;;;;4994792;28;20324;-55
2022/03/02 01:11:46;;;;;;;7.53;5.80;;;;;;;;;;5007749;28;20540;-54
2022/03/02 01:14:12;;;;;;;7.07;6.10;;;;;;;;;;5003909;28;20261;-54
2022/03/02 01:16:38;;;;;;;10.17;6.23;;;;;;;;;;5005031;28;20276;-54
2022/03/02 01:19:05;;;;;;;6.33;5.07;;;;;;;;;;5010850;28;20189;-54
2022/03/02 01:21:31;;;;;;;8.47;6.10;;;;;;;;;;4998414;28;20235;-54
2022/03/02 01:23:59;;;;;;;6.80;5.83;;;;;;;;;;5003999;28;20725;-55
2022/03/02 01:26:25;;;;;;;7.03;5.60;;;;;;;;;;5007565;28;20684;-54
2022/03/02 01:28:54;;;;;;;8.37;6.67;;;;;;;;;;5005213;28;20213;-55
2022/03/02 01:31:21;;;;;;;7.50;5.13;;;;;;;;;;4998629;28;20721;-54
2022/03/02 01:33:49;;;;;;;6.43;5.20;;;;;;;;;;5006460;28;20190;-54
2022/03/02 01:36:15;;;;;;;8.93;6.20;;;;;;;;;;5020862;28;20274;-54
2022/03/02 01:38:41;;;;;;;5.93;5.33;;;;;;;;;;5013109;28;20190;-54
2022/03/02 01:41:07;;;;;;;10.67;5.80;;;;;;;;;;5004623;28;20261;-54
2022/03/02 01:43:33;;;;;;;7.90;5.33;;;;;;;;;;5008322;28;20197;-54
2022/03/02 01:45:59;;;;;;;6.57;5.17;;;;;;;;;;4994587;28;20274;-55
2022/03/02 01:48:25;;;;;;;8.13;5.87;;;;;;;;;;5011830;28;20209;-54
2022/03/02 01:50:52;;;;;;;6.20;5.33;;;;;;;;;;5001357;28;20638;-54
2022/03/02 01:53:18;;;;;;;8.50;5.93;;;;;;;;;;5008692;28;20221;-55
2022/03/02 01:55:45;;;;;;;10.40;5.53;;;;;;;;;;5000311;28;20274;-54
2022/03/02 01:58:11;;;;;;;7.50;5.40;;;;;;;;;;4995693;28;20213;-54
2022/03/02 02:00:37;;;;;;;9.83;5.50;;;;;;;;;;4992733;28;20190;-55
2022/03/02 02:03:04;;;;;;;7.13;5.37;;;;;;;;;;4996036;28;20637;-54
2022/03/02 02:05:30;;;;;;;6.60;5.20;;;;;;;;;;4993401;28;20182;-54
2022/03/02 02:07:56;;;;;;;6.90;5.37;;;;;;;;;;5013494;28;20177;-54
2022/03/02 02:10:22;;;;;;;8.27;5.73;;;;;;;;;;5010063;28;20642;-54
2022/03/02 02:12:48;;;;;;;6.77;4.93;;;;;;;;;;5007802;28;20212;-55
2022/03/02 02:15:15;;;;;;;7.67;5.73;;;;;;;;;;4995943;28;20658;-54
2022/03/02 02:17:41;;;;;;;8.23;5.67;;;;;;;;;;5011259;28;20273;-54
2022/03/02 02:20:08;;;;;;;7.47;5.73;;;;;;;;;;5018295;28;20273;-55
2022/03/02 02:22:42;;;;;;;7.80;5.53;;;;;;;;;;5001361;28;20190;-55
2022/03/02 02:25:08;;;;;;;10.97;6.40;;;;;;;;;;5010252;28;20174;-55
2022/03/02 02:27:35;;;;;;;6.67;5.27;;;;;;;;;;5010397;28;20188;-55
2022/03/02 02:30:03;;;;;;;7.40;4.80;;;;;;;;;;5013324;28;20202;-54
2022/03/02 02:32:30;;;;;;;6.13;5.53;;;;;;;;;;4994067;28;20179;-54
2022/03/02 02:35:00;;;;;;;6.20;5.03;;;;;;;;;;5000460;28;20215;-54
2022/03/02 02:37:26;;;;;;;8.57;5.70;;;;;;;;;;5006117;28;20320;-54
2022/03/02 02:39:56;;;;;;;6.43;5.50;;;;;;;;;;4998639;28;20178;-55
2022/03/02 02:42:23;;;;;;;7.03;4.70;;;;;;;;;;5010372;28;20584;-55
2022/03/02 02:44:50;;;;;;;6.63;4.97;;;;;;;;;;5010196;28;20257;-54
2022/03/02 02:47:16;;;;;;;7.00;5.30;;;;;;;;;;4998692;28;20307;-54
2022/03/02 02:49:42;;;;;;;6.97;5.23;;;;;;;;;;5010261;28;20658;-54
2022/03/02 02:52:08;;;;;;;8.10;5.30;;;;;;;;;;5006578;28;20679;-54
2022/03/02 02:54:35;;;;;;;8.13;5.80;;;;;;;;;;5011550;28;20542;-54
2022/03/02 02:57:01;;;;;;;6.53;5.57;;;;;;;;;;5011065;28;20245;-54
2022/03/02 02:59:27;;;;;;;5.73;5.13;;;;;;;;;;5011516;28;20186;-54
2022/03/02 03:01:53;;;;;;;6.53;5.50;;;;;;;;;;5010679;28;20170;-55
2022/03/02 03:04:20;;;;;;;7.17;5.63;;;;;;;;;;5015923;28;20263;-54
2022/03/02 03:06:46;;;;;;;7.53;5.80;;;;;;;;;;5002602;28;20840;-54
2022/03/02 03:09:12;;;;;;;7.93;6.17;;;;;;;;;;5011375;28;20248;-54
2022/03/02 03:11:41;;;;;;;7.30;5.27;;;;;;;;;;5011752;28;20174;-55
2022/03/02 03:14:12;;;;;;;7.47;5.47;;;;;;;;;;5007064;28;20185;-55
2022/03/02 03:16:38;;;;;;;7.43;4.53;;;;;;;;;;5011896;28;20174;-55
2022/03/02 03:19:04;;;;;;;6.73;4.70;;;;;;;;;;5015584;28;20768;-55
2022/03/02 03:21:30;;;;;;;8.00;5.33;;;;;;;;;;5011075;28;20256;-55
2022/03/02 03:23:56;;;;;;;7.53;5.23;;;;;;;;;;5010730;28;20297;-55
2022/03/02 03:26:22;;;;;;;7.23;5.43;;;;;;;;;;4995325;28;20670;-55
2022/03/02 03:28:48;;;;;;;7.33;5.30;;;;;;;;;;5006912;28;20205;-55
2022/03/02 03:31:14;;;;;;;5.90;4.83;;;;;;;;;;4993878;28;20426;-55
2022/03/02 03:33:40;;;;;;;8.90;5.37;;;;;;;;;;5007833;28;20633;-55
2022/03/02 03:36:06;;;;;;;6.87;5.03;;;;;;;;;;5009815;28;20214;-55
2022/03/02 03:38:32;;;;;;;7.20;5.27;;;;;;;;;;5009596;28;20685;-55
2022/03/02 03:40:58;;;;;;;6.93;5.27;;;;;;;;;;4994352;28;20248;-55
2022/03/02 03:43:25;;;;;;;6.67;5.00;;;;;;;;;;5028803;28;20555;-55
2022/03/02 03:45:51;;;;;;;6.47;5.27;;;;;;;;;;4993810;28;20229;-55
2022/03/02 03:48:17;;;;;;;7.00;4.87;;;;;;;;;;5008631;28;20187;-57
2022/03/02 03:50:44;;;;;;;8.27;5.33;;;;;;;;;;5010211;28;20257;-54
2022/03/02 03:53:11;;;;;;;8.03;5.17;;;;;;;;;;5001178;28;20185;-55
2022/03/02 03:55:40;;;;;;;6.97;4.80;;;;;;;;;;4995110;28;20657;-54
2022/03/02 03:58:06;;;;;;;6.63;4.87;;;;;;;;;;5023679;28;20214;-55
2022/03/02 04:00:34;;;;;;;7.97;5.60;;;;;;;;;;4993795;28;20638;-55
2022/03/02 04:03:00;;;;;;;9.13;6.07;;;;;;;;;;4992445;28;20183;-55
2022/03/02 04:05:26;;;;;;;5.43;4.60;;;;;;;;;;5012213;28;20209;-55
2022/03/02 04:07:52;;;;;;;7.00;5.00;;;;;;;;;;5012208;28;20281;-55
2022/03/02 04:10:25;;;;;;;7.90;5.17;;;;;;;;;;5158293;27;20350;-55
2022/03/02 04:12:52;;;;;;;7.17;5.53;;;;;;;;;;5140441;27;20435;-56
2022/03/02 04:15:18;;;;;;;7.10;4.93;;;;;;;;;;5144591;27;20181;-56
2022/03/02 04:17:46;;;;;;;5.87;5.07;;;;;;;;;;5127731;27;20695;-56
2022/03/02 04:20:12;;;;;;;6.20;4.63;;;;;;;;;;5122088;27;20810;-55
2022/03/02 04:22:38;;;;;;;6.53;5.13;;;;;;;;;;5145347;27;20185;-56
2022/03/02 04:25:05;;;;;;;6.57;5.23;;;;;;;;;;5127617;27;20197;-54
2022/03/02 04:27:31;;;;;;;9.50;5.87;;;;;;;;;;5124393;27;20239;-54
2022/03/02 04:29:57;;;;;;;7.63;5.67;;;;;;;;;;5133081;27;20211;-54
2022/03/02 04:32:23;;;;;;;9.87;5.13;;;;;;;;;;5133350;27;20190;-54
2022/03/02 04:34:50;;;;;;;7.20;5.37;;;;;;;;;;5138166;27;20171;-54
2022/03/02 04:37:17;;;;;;;7.20;5.67;;;;;;;;;;5127623;27;20546;-54
2022/03/02 04:39:44;;;;;;;5.93;4.93;;;;;;;;;;5123166;27;20544;-54
2022/03/02 04:42:10;;;;;;;8.10;5.10;;;;;;;;;;5144577;27;20218;-55
2022/03/02 04:44:37;;;;;;;5.83;4.83;;;;;;;;;;5146558;27;20543;-55
2022/03/02 04:47:03;;;;;;;6.07;4.80;;;;;;;;;;5142361;27;20186;-55
2022/03/02 04:49:30;;;;;;;5.80;5.03;;;;;;;;;;5121743;27;21021;-54
2022/03/02 04:51:56;;;;;;;8.93;4.83;;;;;;;;;;5136530;27;20183;-54
2022/03/02 04:57:09;;;;;;;8.50;5.23;;;;;;;;;;5138543;27;20657;-55
2022/03/02 04:59:35;;;;;;;8.27;5.53;;;;;;;;;;5106295;27;20515;-55
2022/03/02 05:02:01;;;;;;;6.50;5.13;;;;;;;;;;5125224;27;20930;-56
2022/03/02 05:04:27;;;;;;;7.57;5.10;;;;;;;;;;5109672;27;20244;-55
2022/03/02 05:06:54;;;;;;;7.47;5.23;;;;;;;;;;5113875;28;20741;-55
2022/03/02 05:09:20;;;;;;;13.70;6.13;;;;;;;;;;5107538;27;20453;-55
2022/03/02 05:11:46;;;;;;;6.20;4.57;;;;;;;;;;5126455;27;20451;-55
2022/03/02 05:14:13;;;;;;;7.73;5.47;;;;;;;;;;5096298;27;20916;-55
2022/03/02 05:16:39;;;;;;;6.40;4.77;;;;;;;;;;5111007;27;20233;-55
2022/03/02 05:19:06;;;;;;;7.47;5.47;;;;;;;;;;5110346;27;20455;-55
2022/03/02 05:21:32;;;;;;;7.90;4.93;;;;;;;;;;5104609;28;20472;-55
2022/03/02 05:23:58;;;;;;;7.67;5.27;;;;;;;;;;5091559;28;20856;-55
2022/03/02 05:26:24;;;;;;;7.40;5.03;;;;;;;;;;5111288;28;20270;-55
2022/03/02 05:28:51;;;;;;;9.40;5.73;;;;;;;;;;5094577;27;20983;-55
2022/03/02 05:31:17;;;;;;;8.67;5.77;;;;;;;;;;5110702;27;20428;-55
2022/03/02 05:33:43;;;;;;;7.37;5.30;;;;;;;;;;5090714;28;20646;-55
2022/03/02 05:36:10;;;;;;;5.70;4.90;;;;;;;;;;5111203;27;20417;-55
2022/03/02 05:38:36;;;;;;;7.53;5.57;;;;;;;;;;5088264;28;20418;-55
2022/03/02 05:41:02;;;;;;;8.30;5.17;;;;;;;;;;5106804;27;20904;-55
2022/03/02 05:43:28;;;;;;;7.87;5.27;;;;;;;;;;5083371;27;20832;-55
2022/03/02 05:45:54;;;;;;;6.57;4.87;;;;;;;;;;5108946;27;20847;-55
2022/03/02 05:48:20;;;;;;;6.43;4.80;;;;;;;;;;5110320;27;20540;-55
2022/03/02 05:50:55;;;;;;;6.80;5.63;;;;;;;;;;5096260;27;20620;-55
2022/03/02 05:53:22;;;;;;;8.93;6.07;;;;;;;;;;5079948;28;20987;-55
2022/03/02 05:55:48;;;;;;;6.03;5.37;;;;;;;;;;5087000;28;20426;-55
2022/03/02 05:58:15;;;;;;;7.87;5.27;;;;;;;;;;5088974;28;20821;-55
2022/03/02 06:00:42;;;;;;;7.87;5.97;;;;;;;;;;5088227;28;20418;-55
2022/03/02 06:03:08;;;;;;;10.87;5.40;;;;;;;;;;5091548;28;20474;-55
2022/03/02 06:05:35;;;;;;;9.37;6.27;;;;;;;;;;5109234;28;20424;-54
2022/03/02 06:08:01;;;;;;;7.50;5.30;;;;;;;;;;5122976;27;20855;-55
2022/03/02 06:10:27;;;;;;;9.60;5.30;;;;;;;;;;5094022;28;20670;-55
2022/03/02 06:12:54;;;;;;;10.17;5.30;;;;;;;;;;5073117;28;20487;-58
2022/03/02 06:15:20;;;;;;;10.67;5.93;;;;;;;;;;5082850;28;20466;-57
2022/03/02 06:17:47;;;;;;;6.50;5.23;;;;;;;;;;5091215;28;20944;-59
2022/03/02 06:20:14;;;;;;;6.43;5.13;;;;;;;;;;5098598;28;20417;-58
2022/03/02 06:22:40;;;;;;;7.07;5.40;;;;;;;;;;5097373;28;20841;-58
2022/03/02 06:25:07;;;;;;;7.50;5.40;;;;;;;;;;5102571;28;20420;-58
2022/03/02 06:27:34;;;;;;;6.60;5.07;;;;;;;;;;5099582;28;20449;-58
2022/03/02 06:30:01;;;;;;;6.40;5.00;;;;;;;;;;5089970;28;20461;-59
2022/03/02 06:32:28;;;;;;;8.13;5.53;;;;;;;;;;5105966;28;20421;-58
2022/03/02 06:34:55;;;;;;;6.60;5.43;;;;;;;;;;5106092;27;20436;-59
2022/03/02 06:37:22;;;;;;;6.93;5.17;;;;;;;;;;5096114;27;20500;-59
2022/03/02 06:39:48;;;;;;;8.90;5.13;;;;;;;;;;5108971;28;20457;-59
2022/03/02 06:42:28;;;;;;;8.10;5.00;;;;;;;;;;5089584;28;20608;-59
2022/03/02 06:45:00;;;;;;;7.63;4.83;;;;;;;;;;5089461;28;20203;-59
2022/03/02 06:47:28;;;;;;;10.03;5.13;;;;;;;;;;5089480;28;20427;-59
2022/03/02 06:49:57;;;;;;;5.77;4.90;;;;;;;;;;5103710;28;20230;-59
2022/03/02 06:52:26;;;;;;;10.63;5.23;;;;;;;;;;5085125;28;20180;-59
2022/03/02 06:54:52;;;;;;;6.13;5.30;;;;;;;;;;5103813;28;20202;-59
2022/03/02 06:57:19;;;;;;;7.97;5.63;;;;;;;;;;5108728;28;20179;-59
2022/03/02 06:59:51;;;;;;;6.13;4.80;;;;;;;;;;5093348;28;20429;-59
2022/03/02 07:02:21;;;;;;;7.97;5.47;;;;;;;;;;5094999;28;20688;-59
2022/03/02 07:04:48;;;;;;;8.57;5.00;;;;;;;;;;5102554;27;20932;-60
2022/03/02 07:07:15;;;;;;;8.27;5.27;;;;;;;;;;5108807;27;20546;-59
2022/03/02 07:09:41;;;;;;;7.93;6.00;;;;;;;;;;5074671;28;20477;-59
2022/03/02 07:12:08;;;;;;;8.30;5.60;;;;;;;;;;5085694;28;20697;-59
2022/03/02 07:14:35;;;;;;;8.10;5.40;;;;;;;;;;5070003;28;20590;-59
2022/03/02 07:17:03;;;;;;;9.13;5.43;;;;;;;;;;5087253;28;20445;-59
2022/03/02 07:19:29;;;;;;;7.87;4.93;;;;;;;;;;5107613;28;20183;-62
2022/03/02 07:21:56;;;;;;;8.63;5.30;;;;;;;;;;5086884;28;20560;-58
2022/03/02 07:24:23;;;;;;;6.43;5.03;;;;;;;;;;5083704;28;20183;-58
2022/03/02 07:27:01;;;;;;;7.77;5.57;;;;;;;;;;5085082;28;20205;-58
2022/03/02 07:29:35;;;;;;;6.27;4.83;;;;;;;;;;5081768;28;20210;-59
2022/03/02 07:32:01;;;;;;;7.13;5.43;;;;;;;;;;5104611;28;20874;-58
2022/03/02 07:34:30;;;;;;;7.13;5.30;;;;;;;;;;5092475;27;20270;-58
2022/03/02 07:36:57;;;;;;;7.33;5.43;;;;;;;;;;5070286;28;20248;-57
2022/03/02 07:39:23;;;;;;;6.27;5.20;;;;;;;;;;5072998;28;20226;-58
2022/03/02 07:41:50;;;;;;;7.13;5.03;;;;;;;;;;5102208;27;20265;-58
2022/03/02 07:44:16;;;;;;;5.73;5.10;;;;;;;;;;5113959;27;20183;-59
2022/03/02 07:46:45;;;;;;;6.23;5.23;;;;;;;;;;5105587;28;20452;-58
2022/03/02 07:49:12;;;;;;;7.67;5.50;;;;;;;;;;5088434;28;20199;-58
2022/03/02 07:51:40;;;;;;;6.33;4.83;;;;;;;;;;5104384;28;20629;-58
2022/03/02 07:54:09;;;;;;;8.10;5.07;;;;;;;;;;5089052;28;20460;-58
2022/03/02 07:56:35;;;;;;;5.93;4.50;;;;;;;;;;5082460;28;20214;-59
2022/03/02 07:59:04;;;;;;;7.53;5.43;;;;;;;;;;5082076;28;20342;-58
2022/03/02 08:01:34;;;;;;;6.10;5.17;;;;;;;;;;5082933;28;20265;-58
2022/03/02 08:04:03;;;;;;;6.03;5.17;;;;;;;;;;5074619;27;20618;-58
2022/03/02 08:06:33;;;;;;;8.23;6.13;;;;;;;;;;5103373;28;20542;-58
2022/03/02 08:08:59;;;;;;;5.97;5.00;;;;;;;;;;5096804;28;20219;-58
2022/03/02 08:11:26;;;;;;;7.83;6.10;;;;;;;;;;5106035;28;20228;-58
2022/03/02 08:13:52;;;;;;;7.77;5.23;;;;;;;;;;5083119;28;20557;-59
2022/03/02 08:16:18;;;;;;;6.10;5.00;;;;;;;;;;5088696;28;20186;-59
2022/03/02 08:18:44;;;;;;;5.93;5.00;;;;;;;;;;5106972;28;20777;-58
2022/03/02 08:21:14;;;;;;;7.47;5.37;;;;;;;;;;5105617;28;20184;-58
2022/03/02 08:23:41;;;;;;;6.53;5.27;;;;;;;;;;5105622;28;20172;-58
2022/03/02 08:26:07;;;;;;;7.63;5.47;;;;;;;;;;5087616;28;20195;-58
2022/03/02 08:28:35;;;;;;;8.13;6.00;;;;;;;;;;5102438;28;20872;-58
2022/03/02 08:31:01;;;;;;;9.00;5.97;;;;;;;;;;5086720;28;20597;-58
2022/03/02 08:33:32;;;;;;;10.20;5.87;;;;;;;;;;5106094;28;20306;-58
2022/03/02 08:35:59;;;;;;;8.17;5.73;;;;;;;;;;5082205;28;20228;-58
2022/03/02 08:38:25;;;;;;;7.23;5.40;;;;;;;;;;5103269;28;20171;-58
2022/03/02 08:40:52;;;;;;;6.37;5.20;;;;;;;;;;5101182;28;20175;-58
2022/03/02 08:43:21;;;;;;;6.43;5.37;;;;;;;;;;5088312;28;20561;-59
2022/03/02 08:45:51;;;;;;;7.43;5.27;;;;;;;;;;5077707;28;20320;-59
2022/03/02 08:48:21;;;;;;;5.97;5.10;;;;;;;;;;5081033;28;20622;-58
2022/03/02 08:50:51;;;;;;;5.13;4.63;;;;;;;;;;5086793;28;20210;-59
2022/03/02 08:53:18;;;;;;;8.67;5.20;;;;;;;;;;5098856;28;20302;-59
2022/03/02 08:55:45;;;;;;;7.20;5.03;;;;;;;;;;5087323;28;20551;-59
2022/03/02 08:58:11;;;;;;;7.10;4.93;;;;;;;;;;5092235;28;20195;-58
2022/03/02 09:00:38;;;;;;;8.70;5.00;;;;;;;;;;5095036;28;20215;-58
2022/03/02 09:03:04;;;;;;;7.17;5.27;;;;;;;;;;5078143;27;20177;-58
2022/03/02 09:05:31;;;;;;;8.83;5.40;;;;;;;;;;5077194;28;20203;-59
2022/03/02 09:07:57;;;;;;;8.17;4.73;;;;;;;;;;5072393;28;20177;-58
2022/03/02 09:10:24;;;;;;;6.53;5.30;;;;;;;;;;5109986;28;20245;-58
2022/03/02 09:12:51;;;;;;;6.70;5.00;;;;;;;;;;5111253;28;20539;-58
2022/03/02 09:15:17;;;;;;;6.80;5.13;;;;;;;;;;5096788;28;20179;-58
2022/03/02 09:17:43;;;;;;;8.17;6.10;;;;;;;;;;5112586;27;21114;-58
2022/03/02 09:20:10;;;;;;;5.57;4.87;;;;;;;;;;5091176;28;20178;-58
2022/03/02 09:22:38;;;;;;;6.53;4.67;;;;;;;;;;5076738;28;20318;-58
2022/03/02 09:25:06;;;;;;;6.77;5.10;;;;;;;;;;5089298;28;20171;-58
2022/03/02 09:27:33;;;;;;;6.80;4.33;;;;;;;;;;5090286;27;20182;-58
2022/03/02 09:30:12;;;;;;;5.00;4.30;;;;;;;;;;5098156;28;20191;-58
2022/03/02 09:32:40;;;;;;;12.57;6.07;;;;;;;;;;5092079;27;20521;-59
2022/03/02 09:35:11;;;;;;;7.00;4.60;;;;;;;;;;5107388;28;20541;-62
2022/03/02 09:37:40;;;;;;;5.73;5.07;;;;;;;;;;5108244;28;20245;-57
2022/03/02 09:40:22;;;;;;;7.57;5.13;;;;;;;;;;5109497;28;20190;-57
2022/03/02 09:43:12;;;;;;;6.30;5.07;;;;;;;;;;5066582;28;20699;-59
2022/03/02 09:45:40;;;;;;;5.77;4.13;;;;;;;;;;5085680;28;20192;-59
2022/03/02 09:48:12;;;;;;;5.13;3.90;;;;;;;;;;5113010;27;20189;-59
2022/03/02 09:50:39;;;;;;;7.07;5.37;;;;;;;;;;5086356;28;20444;-59
2022/03/02 09:53:09;;;;;;;6.20;4.20;;;;;;;;;;5106690;27;20171;-58
2022/03/02 09:55:45;;;;;;;8.63;5.17;;;;;;;;;;5109836;27;20528;-58
2022/03/02 09:58:15;;;;;;;6.53;5.10;;;;;;;;;;5088260;28;20670;-58
2022/03/02 10:00:43;;;;;;;7.13;5.30;;;;;;;;;;5091101;27;20178;-58
2022/03/02 10:03:14;;;;;;;9.60;4.60;;;;;;;;;;5106101;27;20183;-58
2022/03/02 10:05:43;;;;;;;4.90;4.30;;;;;;;;;;5087310;28;20262;-58
2022/03/02 10:08:09;;;;;;;5.30;4.70;;;;;;;;;;5089903;28;20179;-58
2022/03/02 10:10:37;;;;;;;7.73;4.60;;;;;;;;;;5089929;28;20194;-58
2022/03/02 10:13:05;;;;;;;5.20;4.27;;;;;;;;;;5083557;28;20680;-58
2022/03/02 10:15:32;;;;;;;8.63;4.90;;;;;;;;;;5090355;27;20285;-58
2022/03/02 10:17:59;;;;;;;5.07;4.50;;;;;;;;;;5109328;28;20849;-58
2022/03/02 10:20:29;;;;;;;6.67;4.90;;;;;;;;;;5108090;27;20736;-58
2022/03/02 10:23:14;;;;;;;5.03;4.53;;;;;;;;;;5087262;28;20266;-57
2022/03/02 10:25:52;;;;;;;7.53;5.37;;;;;;;;;;5104753;27;20178;-58
2022/03/02 10:28:36;;;;;;;5.33;4.53;;;;;;;;;;5101889;28;21002;-58
2022/03/02 10:31:17;;;;;;;6.63;5.10;;;;;;;;;;5083546;28;20237;-57
2022/03/02 10:33:47;;;;;;;6.23;4.80;;;;;;;;;;5078125;27;20167;-57
2022/03/02 10:36:14;;;;;;;6.17;4.80;;;;;;;;;;5106271;27;20587;-57
2022/03/02 10:38:50;;;;;;;5.13;4.63;;;;;;;;;;5102748;28;20211;-56
2022/03/02 10:41:18;;;;;;;27.70;8.47;;;;;;;;;;5088008;28;20521;-58
2022/03/02 10:43:49;;;;;;;53.50;8.60;;;;;;;;;;5101888;28;20260;-58
2022/03/02 10:46:19;;;;;;;28.37;7.53;;;;;;;;;;5109148;27;20289;-57
2022/03/02 10:48:46;;;;;;;12.47;6.07;;;;;;;;;;5108818;28;20202;-58
2022/03/02 10:51:14;;;;;;;10.33;5.33;;;;;;;;;;5087795;28;20182;-58
2022/03/02 10:53:41;;;;;;;9.63;5.27;;;;;;;;;;5090070;28;20187;-58
2022/03/02 10:56:08;;;;;;;11.13;5.03;;;;;;;;;;5070621;28;20625;-58
2022/03/02 10:58:37;;;;;;;10.33;5.33;;;;;;;;;;5085510;28;20665;-57
2022/03/02 11:01:04;;;;;;;8.87;4.90;;;;;;;;;;5106658;28;20175;-58
2022/03/02 11:03:35;;;;;;;13.13;5.50;;;;;;;;;;5082827;28;20190;-58
2022/03/02 11:06:03;;;;;;;7.10;4.43;;;;;;;;;;5082077;28;20183;-57
2022/03/02 11:08:30;;;;;;;7.20;4.67;;;;;;;;;;5091551;27;20588;-57
2022/03/02 11:10:56;;;;;;;7.40;4.87;;;;;;;;;;5099260;27;20174;-57
2022/03/02 11:13:23;;;;;;;9.37;4.80;;;;;;;;;;5105733;28;20163;-58
2022/03/02 11:15:54;;;;;;;15.13;4.73;;;;;;;;;;5088306;28;20171;-58
2022/03/02 11:18:42;;;;;;;10.57;5.73;;;;;;;;;;5092201;28;20270;-58
2022/03/02 11:21:09;;;;;;;8.57;5.03;;;;;;;;;;5104483;27;20274;-58
2022/03/02 11:23:45;;;;;;;5.80;4.43;;;;;;;;;;5087305;28;20229;-58
2022/03/02 11:26:12;;;;;;;9.27;5.23;;;;;;;;;;5081309;28;20280;-58
2022/03/02 11:28:46;;;;;;;6.83;4.70;;;;;;;;;;5086501;28;20653;-57
2022/03/02 11:31:18;;;;;;;5.90;4.83;;;;;;;;;;5106833;28;20171;-58
2022/03/02 11:33:44;;;;;;;7.13;4.60;;;;;;;;;;5087725;28;20210;-58
2022/03/02 11:36:12;;;;;;;7.50;4.60;;;;;;;;;;5084714;28;20167;-57
2022/03/02 11:38:43;;;;;;;5.03;4.03;;;;;;;;;;5075602;28;20175;-58
2022/03/02 11:41:11;;;;;;;8.30;4.57;;;;;;;;;;5101961;28;20197;-58
2022/03/02 11:43:38;;;;;;;7.57;5.57;;;;;;;;;;5106561;28;20474;-58
2022/03/02 11:46:05;;;;;;;6.87;5.30;;;;;;;;;;5107620;28;20240;-58
2022/03/02 11:48:34;;;;;;;6.40;4.47;;;;;;;;;;5084116;28;20233;-58
2022/03/02 11:51:23;;;;;;;5.83;4.73;;;;;;;;;;5075811;28;20239;-58
2022/03/02 11:53:53;;;;;;;6.80;4.80;;;;;;;;;;5104043;28;20171;-58
2022/03/02 11:56:20;;;;;;;7.40;4.63;;;;;;;;;;5083378;28;20217;-58
2022/03/02 11:59:05;;;;;;;4.77;4.27;;;;;;;;;;5102034;28;20574;-58
2022/03/02 12:01:40;;;;;;;6.63;5.07;;;;;;;;;;5086968;28;20183;-58
2022/03/02 12:04:07;;;;;;;6.10;4.70;;;;;;;;;;5101834;28;20617;-58
2022/03/02 12:06:47;;;;;;;5.60;4.73;;;;;;;;;;5095702;28;20232;-58
2022/03/02 12:09:47;;;;;;;5.83;4.43;;;;;;;;;;5078346;28;20535;-58
2022/03/02 12:12:16;;;;;;;5.73;5.13;;;;;;;;;;5047347;28;20270;-58
2022/03/02 12:14:46;;;;;;;6.00;4.80;;;;;;;;;;5078440;28;20168;-58
2022/03/02 12:17:26;;;;;;;5.53;4.80;;;;;;;;;;5083650;28;20164;-58
2022/03/02 12:19:56;;;;;;;4.53;4.13;;;;;;;;;;5081577;28;20195;-58
2022/03/02 12:22:24;;;;;;;5.67;5.07;;;;;;;;;;5080526;28;20171;-58
2022/03/02 12:24:50;;;;;;;4.73;4.20;;;;;;;;;;5086286;28;20233;-58
2022/03/02 12:27:17;;;;;;;5.83;4.50;;;;;;;;;;5078474;28;20321;-57
2022/03/02 12:29:45;;;;;;;4.40;4.00;;;;;;;;;;5090143;28;20219;-58
2022/03/02 12:32:17;;;;;;;5.67;4.33;;;;;;;;;;5088735;28;20195;-58
2022/03/02 12:34:48;;;;;;;4.90;4.40;;;;;;;;;;5086195;28;20178;-58
2022/03/02 12:37:14;;;;;;;4.97;4.47;;;;;;;;;;5089465;28;20171;-58
2022/03/02 12:39:50;;;;;;;5.20;4.70;;;;;;;;;;5085714;28;20180;-58
2022/03/02 12:42:17;;;;;;;7.67;5.63;;;;;;;;;;5095787;28;20247;-58
2022/03/02 12:44:50;;;;;;;5.43;4.93;;;;;;;;;;5087100;28;20172;-57
2022/03/02 12:47:19;;;;;;;5.00;4.50;;;;;;;;;;5091196;28;20280;-58
2022/03/02 12:49:46;;;;;;;4.80;4.33;;;;;;;;;;5088068;28;20214;-58
2022/03/02 12:52:14;;;;;;;4.50;4.10;;;;;;;;;;5067525;28;20721;-59
2022/03/02 12:54:45;;;;;;;5.67;5.03;;;;;;;;;;5081714;28;20259;-58
2022/03/02 12:57:13;;;;;;;6.00;5.43;;;;;;;;;;5088672;28;20195;-59
2022/03/02 12:59:43;;;;;;;5.93;5.10;;;;;;;;;;5087165;28;20287;-59
2022/03/02 13:02:14;;;;;;;4.67;4.10;;;;;;;;;;5083486;28;20223;-58
2022/03/02 13:04:58;;;;;;;8.73;5.30;;;;;;;;;;5083245;28;20251;-59
2022/03/02 13:07:29;;;;;;;4.93;4.53;;;;;;;;;;5081669;28;20661;-59
2022/03/02 13:10:00;;;;;;;5.00;4.10;;;;;;;;;;5083350;28;20246;-59
2022/03/02 13:12:29;;;;;;;4.80;4.00;;;;;;;;;;5098650;27;20567;-59
2022/03/02 13:14:56;;;;;;;5.43;4.50;;;;;;;;;;5085190;28;20176;-59
2022/03/02 13:17:24;;;;;;;5.33;4.53;;;;;;;;;;5104033;28;20179;-58
2022/03/02 13:19:52;;;;;;;4.50;4.10;;;;;;;;;;5082192;28;20686;-59
2022/03/02 13:22:32;;;;;;;6.00;5.23;;;;;;;;;;5102751;28;20281;-59
2022/03/02 13:25:04;;;;;;;5.10;4.60;;;;;;;;;;5099615;28;20190;-59
2022/03/02 13:27:30;;;;;;;6.10;5.30;;;;;;;;;;5092696;28;20221;-59
2022/03/02 13:30:16;;;;;;;4.87;4.30;;;;;;;;;;5083812;28;20637;-59
2022/03/02 13:32:52;;;;;;;6.57;4.67;;;;;;;;;;5087446;28;20215;-59
2022/03/02 13:35:19;;;;;;;5.03;4.40;;;;;;;;;;5085768;28;20516;-58
2022/03/02 13:37:57;;;;;;;4.57;4.17;;;;;;;;;;5096054;28;20210;-58
2022/03/02 13:40:44;;;;;;;7.00;4.90;;;;;;;;;;5086284;28;20517;-59
2022/03/02 13:43:10;;;;;;;5.07;4.33;;;;;;;;;;5091569;28;20179;-59
2022/03/02 13:45:38;;;;;;;7.37;4.63;;;;;;;;;;5086615;28;20190;-60
2022/03/02 13:48:14;;;;;;;5.17;4.67;;;;;;;;;;5084392;28;20199;-59
2022/03/02 13:50:57;;;;;;;4.90;4.37;;;;;;;;;;5099588;28;20205;-59
2022/03/02 13:53:36;;;;;;;6.97;5.10;;;;;;;;;;5101485;28;20215;-59
2022/03/02 13:56:07;;;;;;;4.63;4.13;;;;;;;;;;5104987;28;20247;-59
2022/03/02 13:58:34;;;;;;;6.53;4.87;;;;;;;;;;5105963;27;20503;-59
2022/03/02 14:01:14;;;;;;;5.37;4.67;;;;;;;;;;5076393;28;20203;-60
2022/03/02 14:03:44;;;;;;;5.17;4.63;;;;;;;;;;5087509;28;20665;-59
2022/03/02 14:06:14;;;;;;;5.20;4.70;;;;;;;;;;5093664;28;20277;-59
2022/03/02 14:08:42;;;;;;;5.40;4.90;;;;;;;;;;5091075;28;20218;-59
2022/03/02 14:11:26;;;;;;;5.17;4.47;;;;;;;;;;5082969;28;20798;-59
2022/03/02 14:13:52;;;;;;;5.50;5.00;;;;;;;;;;5076349;28;20182;-60
2022/03/02 14:16:22;;;;;;;5.07;4.67;;;;;;;;;;5086294;28;20184;-59
2022/03/02 14:18:58;;;;;;;6.17;5.50;;;;;;;;;;5103193;27;20794;-59
2022/03/02 14:21:24;;;;;;;5.20;4.67;;;;;;;;;;5085727;28;20651;-59
2022/03/02 14:23:50;;;;;;;5.43;4.20;;;;;;;;;;5093114;27;20186;-59
2022/03/02 14:26:17;;;;;;;7.97;4.53;;;;;;;;;;5083698;28;20547;-59
2022/03/02 14:28:44;;;;;;;4.60;4.00;;;;;;;;;;5096140;28;20193;-59
2022/03/02 14:31:10;;;;;;;5.27;4.60;;;;;;;;;;5095654;28;20574;-59
2022/03/02 14:33:39;;;;;;;6.37;4.70;;;;;;;;;;5095455;28;20180;-58
2022/03/02 14:36:05;;;;;;;4.50;4.10;;;;;;;;;;5080422;28;20180;-59
2022/03/02 14:38:32;;;;;;;5.67;4.67;;;;;;;;;;5089725;28;20179;-59
2022/03/02 14:40:59;;;;;;;5.23;4.73;;;;;;;;;;5104243;27;20209;-60
2022/03/02 14:43:25;;;;;;;5.60;4.40;;;;;;;;;;5087971;28;20187;-59
2022/03/02 14:45:53;;;;;;;5.30;4.80;;;;;;;;;;5086185;28;20504;-59
2022/03/02 14:48:24;;;;;;;5.07;4.47;;;;;;;;;;5102766;28;20648;-59
2022/03/02 14:50:52;;;;;;;5.60;5.00;;;;;;;;;;5093634;28;20631;-59
2022/03/02 14:53:27;;;;;;;5.20;4.70;;;;;;;;;;5096484;28;20576;-58